YFC71 WSSL-WSSL

Flight info

Callsign YFC71
Flight time 0h 30m
Altitude 8000
Route LATA
Aircraft DA40/L-SBDGRY/S

Departure

Time 2026-04-21 15:57
Airport Seletar Airport (WSSL)

Arrival

Time 2026-04-21 16:27
Airport Seletar Airport (WSSL)
Time Latitude Longitude Altitude Speed Heading
2026-04-21 15:30 1.41432 103.86360 49 ft 0 kts 149°
2026-04-21 15:50 1.41426 103.86364 49 ft 5 kts 146°
2026-04-21 15:50 1.41398 103.86387 49 ft 5 kts 99°
2026-04-21 15:50 1.41457 103.86427 49 ft 10 kts 28°
2026-04-21 15:51 1.41583 103.86501 49 ft 15 kts 32°
2026-04-21 15:51 1.41666 103.86558 49 ft 19 kts 34°
2026-04-21 15:51 1.41755 103.86614 49 ft 13 kts 33°
2026-04-21 15:51 1.41820 103.86657 49 ft 19 kts 34°
2026-04-21 15:52 1.41939 103.86734 49 ft 22 kts 33°
2026-04-21 15:52 1.42094 103.86835 49 ft 20 kts 35°
2026-04-21 15:52 1.42175 103.86888 49 ft 22 kts 32°
2026-04-21 15:52 1.42287 103.86961 49 ft 12 kts 31°
2026-04-21 15:53 1.42316 103.87002 49 ft 6 kts 104°
2026-04-21 15:53 1.42302 103.87015 49 ft 0 kts 140°
2026-04-21 15:54 1.42299 103.87021 49 ft 0 kts 124°
2026-04-21 15:55 1.42259 103.87080 49 ft 9 kts 126°
2026-04-21 15:56 1.42211 103.87101 49 ft 0 kts 209°
2026-04-21 15:56 1.42045 103.86994 49 ft 55 kts 213°
2026-04-21 15:56 1.41649 103.86736 178 ft 73 kts 212°
2026-04-21 15:56 1.41201 103.86439 394 ft 80 kts 215°
2026-04-21 15:57 1.40829 103.86049 645 ft 83 kts 251°
2026-04-21 15:57 1.40647 103.85513 912 ft 80 kts 248°
2026-04-21 15:57 1.40444 103.84983 1119 ft 83 kts 247°
2026-04-21 15:57 1.40238 103.84453 1359 ft 81 kts 248°
2026-04-21 15:58 1.40017 103.83925 1529 ft 90 kts 244°
2026-04-21 15:58 1.39547 103.83416 1539 ft 110 kts 211°
2026-04-21 15:58 1.38901 103.82989 1587 ft 109 kts 231°
2026-04-21 15:58 1.38801 103.82245 1779 ft 102 kts 271°
2026-04-21 15:59 1.38809 103.81601 2126 ft 86 kts 269°
2026-04-21 15:59 1.38795 103.81014 2366 ft 83 kts 266°
2026-04-21 15:59 1.38741 103.80441 2576 ft 84 kts 263°
2026-04-21 15:59 1.38664 103.79868 2782 ft 84 kts 261°
2026-04-21 16:00 1.38570 103.79290 2985 ft 84 kts 259°
2026-04-21 16:00 1.38436 103.78723 3181 ft 85 kts 256°
2026-04-21 16:00 1.38297 103.78150 3383 ft 85 kts 258°
2026-04-21 16:00 1.37818 103.77855 3529 ft 91 kts 172°
2026-04-21 16:01 1.37622 103.78317 3711 ft 89 kts 47°
2026-04-21 16:01 1.38173 103.78309 3938 ft 79 kts 342°
2026-04-21 16:01 1.38738 103.78209 4090 ft 85 kts
2026-04-21 16:01 1.39306 103.78217 4287 ft 84 kts 358°
2026-04-21 16:02 1.39895 103.78206 4484 ft 83 kts 356°
2026-04-21 16:02 1.40492 103.78185 4648 ft 87 kts 354°
2026-04-21 16:02 1.41077 103.78120 4837 ft 85 kts 351°
2026-04-21 16:02 1.41663 103.78048 5002 ft 86 kts 351°
2026-04-21 16:03 1.42259 103.77975 5191 ft 85 kts 352°
2026-04-21 16:03 1.42863 103.77921 5363 ft 86 kts 354°
2026-04-21 16:03 1.43286 103.77608 5537 ft 84 kts 266°
2026-04-21 16:03 1.42840 103.77287 5674 ft 92 kts 178°
2026-04-21 16:04 1.42133 103.77304 5662 ft 112 kts 180°
2026-04-21 16:04 1.41338 103.77311 5665 ft 115 kts 181°
2026-04-21 16:04 1.40528 103.77285 5659 ft 119 kts 185°
2026-04-21 16:04 1.39693 103.77287 5654 ft 122 kts 180°
2026-04-21 16:05 1.38844 103.77288 5662 ft 123 kts 182°
2026-04-21 16:05 1.37975 103.77288 5658 ft 125 kts 181°
2026-04-21 16:05 1.37111 103.77349 5637 ft 126 kts 155°
2026-04-21 16:05 1.36724 103.78070 5631 ft 125 kts 81°
2026-04-21 16:06 1.37267 103.78652 5627 ft 120 kts
2026-04-21 16:06 1.38092 103.78620 5659 ft 115 kts 356°
2026-04-21 16:06 1.38891 103.78601 5669 ft 115 kts 359°
2026-04-21 16:06 1.39696 103.78623 5662 ft 117 kts
2026-04-21 16:07 1.40496 103.78666 5656 ft 117 kts
2026-04-21 16:07 1.41319 103.78669 5648 ft 117 kts 359°
2026-04-21 16:07 1.42129 103.78694 5677 ft 115 kts
2026-04-21 16:07 1.42726 103.79126 5714 ft 116 kts 78°
2026-04-21 16:08 1.41500 103.79812 5669 ft 122 kts 182°
2026-04-21 16:08 1.40643 103.79776 5643 ft 124 kts 184°
2026-04-21 16:08 1.39784 103.79722 5618 ft 124 kts 186°
2026-04-21 16:09 1.38947 103.79609 5647 ft 121 kts 192°
2026-04-21 16:09 1.38117 103.79569 5648 ft 122 kts 156°
2026-04-21 16:09 1.37710 103.80265 5632 ft 122 kts 83°
2026-04-21 16:09 1.38227 103.80849 5652 ft 116 kts
2026-04-21 16:10 1.38891 103.80499 5632 ft 117 kts 297°
2026-04-21 16:10 1.38911 103.79696 5607 ft 119 kts 260°
2026-04-21 16:10 1.38747 103.78880 5585 ft 120 kts 260°
2026-04-21 16:10 1.38491 103.78096 5607 ft 119 kts 245°
2026-04-21 16:11 1.37811 103.77669 5584 ft 121 kts 188°
2026-04-21 16:11 1.37257 103.78081 5590 ft 120 kts 75°
2026-04-21 16:11 1.37944 103.78339 5555 ft 119 kts 359°
2026-04-21 16:11 1.38770 103.78390 5551 ft 120 kts
2026-04-21 16:12 1.39594 103.78444 5312 ft 114 kts
2026-04-21 16:12 1.40372 103.78469 5026 ft 110 kts
2026-04-21 16:12 1.41139 103.78459 4957 ft 115 kts 359°
2026-04-21 16:12 1.41934 103.78445 4968 ft 114 kts 358°
2026-04-21 16:13 1.42726 103.78404 4964 ft 115 kts 355°
2026-04-21 16:13 1.43267 103.77926 4989 ft 112 kts 279°
2026-04-21 16:13 1.42928 103.77273 4982 ft 116 kts 206°
2026-04-21 16:13 1.42121 103.77202 4975 ft 118 kts 181°
2026-04-21 16:14 1.41296 103.77215 4953 ft 119 kts 180°
2026-04-21 16:14 1.40474 103.77237 4969 ft 118 kts 179°
2026-04-21 16:14 1.39644 103.77250 4950 ft 120 kts 181°
2026-04-21 16:14 1.38805 103.77227 4963 ft 118 kts 185°
2026-04-21 16:15 1.37989 103.77253 4966 ft 120 kts 178°
2026-04-21 16:15 1.37246 103.77529 4971 ft 119 kts 121°
2026-04-21 16:15 1.37341 103.78279 4980 ft 116 kts 45°
2026-04-21 16:15 1.38071 103.78472 5028 ft 110 kts 354°
2026-04-21 16:16 1.38852 103.78433 4993 ft 114 kts
2026-04-21 16:16 1.39650 103.78433 4976 ft 116 kts 356°
2026-04-21 16:16 1.40438 103.78377 4984 ft 114 kts 354°
2026-04-21 16:16 1.41236 103.78341 4971 ft 115 kts 359°
2026-04-21 16:17 1.42037 103.78346 4973 ft 114 kts 359°
2026-04-21 16:17 1.42749 103.78149 4958 ft 102 kts 305°
2026-04-21 16:17 1.42673 103.77550 4860 ft 89 kts 224°
2026-04-21 16:17 1.42076 103.77436 4606 ft 97 kts 176°
2026-04-21 16:18 1.41379 103.77480 4316 ft 101 kts 179°
2026-04-21 16:18 1.40656 103.77487 4018 ft 105 kts 181°
2026-04-21 16:18 1.39924 103.77498 3767 ft 103 kts 179°
2026-04-21 16:18 1.39241 103.77587 3552 ft 98 kts 142°
2026-04-21 16:19 1.39012 103.78204 3285 ft 99 kts 94°
2026-04-21 16:19 1.38958 103.78915 2941 ft 106 kts 95°
2026-04-21 16:19 1.38885 103.79652 2647 ft 106 kts 95°
2026-04-21 16:19 1.38804 103.80377 2391 ft 102 kts 97°
2026-04-21 16:20 1.38665 103.81070 2102 ft 103 kts 102°
2026-04-21 16:20 1.38520 103.81806 2021 ft 112 kts 94°
2026-04-21 16:20 1.38737 103.82538 2023 ft 113 kts 55°
2026-04-21 16:20 1.39278 103.83116 1985 ft 115 kts 44°
2026-04-21 16:21 1.39845 103.83671 1974 ft 114 kts 44°
2026-04-21 16:21 1.40433 103.84220 1921 ft 116 kts 42°
2026-04-21 16:21 1.41029 103.84760 1896 ft 115 kts 42°
2026-04-21 16:21 1.41622 103.85300 1905 ft 111 kts 42°
2026-04-21 16:22 1.42195 103.85779 1924 ft 108 kts 38°
2026-04-21 16:22 1.42790 103.86227 1915 ft 106 kts 36°
2026-04-21 16:22 1.43306 103.86727 1930 ft 104 kts 69°
2026-04-21 16:22 1.43083 103.87360 1924 ft 106 kts 144°
2026-04-21 16:23 1.42384 103.87439 1954 ft 104 kts 202°
2026-04-21 16:23 1.41749 103.87097 1987 ft 104 kts 211°
2026-04-21 16:23 1.41155 103.86726 1986 ft 91 kts 214°
2026-04-21 16:23 1.40661 103.86371 1827 ft 89 kts 217°
2026-04-21 16:24 1.40282 103.85925 1655 ft 88 kts 267°
2026-04-21 16:24 1.40626 103.85391 1325 ft 99 kts 317°
2026-04-21 16:24 1.41173 103.85029 1103 ft 95 kts
2026-04-21 16:24 1.41764 103.85314 970 ft 94 kts 28°
2026-04-21 16:25 1.42319 103.85618 931 ft 89 kts 30°
2026-04-21 16:25 1.42843 103.85920 913 ft 86 kts 32°
2026-04-21 16:25 1.43328 103.86252 896 ft 80 kts 38°
2026-04-21 16:25 1.43441 103.86753 692 ft 83 kts 120°
2026-04-21 16:26 1.43145 103.87228 551 ft 77 kts 121°
2026-04-21 16:26 1.42686 103.87403 373 ft 83 kts 210°
2026-04-21 16:26 1.42203 103.87095 98 ft 78 kts 214°
2026-04-21 16:26 1.41818 103.86842 48 ft 53 kts 208°
2026-04-21 16:27 1.41596 103.86701 49 ft 29 kts 214°
2026-04-21 16:27 1.41503 103.86627 50 ft 13 kts 259°
2026-04-21 16:27 1.41555 103.86538 49 ft 11 kts 304°
2026-04-21 16:27 1.41550 103.86501 49 ft 11 kts 208°
2026-04-21 16:28 1.41477 103.86454 49 ft 9 kts 218°
2026-04-21 16:28 1.41478 103.86412 49 ft 9 kts 298°
2026-04-21 16:28 1.41462 103.86406 49 ft 1 kts 145°